Terminal Aerodrome Forecast
Issued by NWS Blacksburg, VA

Home | Current Version | Previous Version | Text Only | Print | Product List | Glossary On
Versions: 1 2 3 4 5 6 7 8 9 10 11 12 13 14 15 16 17 18 19 20 21 22 23 24 25 26 27 28 29 30 31 32 33 34 35 36 37 38 39 40 41 42 43 44
116
FTUS41 KRNK 280726 AAA
TAFDAN
TAF AMD
KDAN 280726Z 2807/2906 00000KT P6SM VCTS SCT035 BKN050CB
      TEMPO 2808/2810 3SM TSRA BR OVC035CB
     FM281000 00000KT 4SM BR OVC025
     FM281500 17004KT P6SM OVC015
     FM281800 18006KT P6SM VCTS BKN025 OVC045CB
     FM290000 VRB03KT P6SM BKN015=

USA.gov is the U.S. government's official web portal to all federal, state and local government web resources and services.